Time;durP1;ratioP1;P1;durP2;ratioP2;P2;SDS_P1;SDS_P2;PMS_P1;PMS_P2;Temp;Humidity;BMP_temperature;BMP_pressure;BME280_temperature;BME280_humidity;BME280_pressure;Samples;Min_cycle;Max_cycle;Signal;HPM_P1;HPM_P2
2021/11/17 02:40:35;;;;;;;111.93;41.43;;;;;;;6.10;100.00;100866.08;713948;1176;114060;-71
2021/11/17 02:56:03;;;;;;;99.03;37.83;;;;;;;5.87;100.00;100836.16;713608;1199;114527;-71
2021/11/17 03:11:24;;;;;;;106.25;39.85;;;;;;;5.55;100.00;100831.08;713702;1177;114006;-71
2021/11/17 03:26:38;;;;;;;106.38;39.48;;;;;;;5.57;100.00;100821.41;713760;1199;114396;-70
2021/11/17 03:42:03;;;;;;;109.40;41.00;;;;;;;5.52;100.00;100808.67;713838;1179;114025;-70
2021/11/17 03:57:11;;;;;;;98.20;38.13;;;;;;;5.42;100.00;100823.14;713729;1176;113622;-70
2021/11/17 04:12:26;;;;;;;96.77;36.80;;;;;;;5.46;100.00;100804.67;713726;1203;113886;-71
2021/11/17 04:27:34;;;;;;;106.98;39.43;;;;;;;5.46;100.00;100801.22;713728;1192;114001;-72
2021/11/17 04:42:54;;;;;;;114.23;38.07;;;;;;;5.36;100.00;100795.72;713720;1188;114226;-72
2021/11/17 04:58:12;;;;;;;110.40;38.47;;;;;;;5.41;100.00;100785.89;713793;1203;115811;-70
2021/11/17 05:13:43;;;;;;;108.63;37.73;;;;;;;5.32;100.00;100770.81;713821;1206;114048;-71
2021/11/17 05:28:49;;;;;;;107.10;35.03;;;;;;;5.45;100.00;100766.56;714514;1202;115511;-73
2021/11/17 05:43:57;;;;;;;95.93;32.83;;;;;;;5.51;100.00;100762.75;714154;1176;113979;-71
2021/11/17 05:59:21;;;;;;;88.78;33.00;;;;;;;5.36;100.00;100761.89;714287;1177;114534;-72
2021/11/17 06:14:30;;;;;;;94.45;36.20;;;;;;;5.36;100.00;100748.89;714983;1200;114785;-71
2021/11/17 06:29:37;;;;;;;94.30;34.55;;;;;;;5.39;100.00;100759.11;714363;1200;114739;-71
2021/11/17 06:44:42;;;;;;;91.65;32.90;;;;;;;5.22;100.00;100751.45;713802;1203;115047;-71
2021/11/17 06:59:44;;;;;;;93.37;34.80;;;;;;;5.15;100.00;100751.80;714143;1200;113941;-71
2021/11/17 07:14:47;;;;;;;116.70;48.30;;;;;;;5.08;100.00;100749.64;714528;1202;114508;-74
2021/11/17 07:29:55;;;;;;;99.50;40.80;;;;;;;5.15;100.00;100756.18;714230;1205;113439;-75
2021/11/17 07:44:57;;;;;;;93.70;37.97;;;;;;;5.03;100.00;100760.33;714058;1200;115355;-75
2021/11/17 08:00:00;;;;;;;92.68;39.78;;;;;;;5.06;100.00;100770.54;714758;1177;113754;-72
2021/11/17 08:15:04;;;;;;;79.33;29.98;;;;;;;5.02;100.00;100776.84;714492;1200;114468;-72
2021/11/17 08:30:10;;;;;;;102.85;38.75;;;;;;;5.08;100.00;100773.91;714444;1200;114830;-72
2021/11/17 08:45:13;;;;;;;93.27;35.47;;;;;;;5.13;100.00;100782.28;714377;1203;115422;-74
2021/11/17 09:00:19;;;;;;;63.70;26.58;;;;;;;5.10;100.00;100779.84;714284;1199;115147;-71
2021/11/17 09:15:30;;;;;;;77.20;29.75;;;;;;;4.96;100.00;100782.38;714150;1179;114105;-72
2021/11/17 09:30:35;;;;;;;97.55;35.95;;;;;;;5.06;100.00;100769.72;714351;1200;114445;-74
2021/11/17 09:45:42;;;;;;;120.43;45.77;;;;;;;5.22;100.00;100756.66;714527;1200;113972;-74
2021/11/17 10:00:50;;;;;;;82.03;33.67;;;;;;;5.21;100.00;100758.41;714274;1199;114638;-74
2021/11/17 10:15:55;;;;;;;78.40;29.70;;;;;;;5.25;100.00;100746.92;714164;1203;114242;-75
2021/11/17 10:31:04;;;;;;;84.45;32.15;;;;;;;5.35;100.00;100718.59;714467;1200;115026;-72
2021/11/17 10:46:13;;;;;;;83.10;32.15;;;;;;;5.58;100.00;100709.42;714737;1199;113978;-75
2021/11/17 11:01:18;;;;;;;77.98;31.48;;;;;;;5.75;100.00;100684.94;715027;1200;115232;-72
2021/11/17 11:16:23;;;;;;;130.30;51.30;;;;;;;5.76;100.00;100677.98;714823;1189;113878;-72
2021/11/17 11:31:45;;;;;;;108.30;40.40;;;;;;;5.84;100.00;100660.93;714807;1177;114291;-76
2021/11/17 11:46:50;;;;;;;166.75;68.05;;;;;;;6.08;100.00;100636.09;715425;1176;113973;-73
2021/11/17 12:02:19;;;;;;;117.00;45.75;;;;;;;6.39;100.00;100614.11;714844;1176;114022;-75
2021/11/17 12:17:27;;;;;;;118.13;47.80;;;;;;;6.61;100.00;100597.91;714681;1203;114297;-75
2021/11/17 12:32:35;;;;;;;103.25;44.90;;;;;;;6.62;100.00;100599.55;714113;1200;114183;-76
2021/11/17 12:47:44;;;;;;;99.25;46.45;;;;;;;6.68;100.00;100598.33;713915;1177;113699;-75
2021/11/17 13:03:01;;;;;;;95.57;41.77;;;;;;;6.69;100.00;100594.79;713862;1176;114472;-75
2021/11/17 13:18:22;;;;;;;97.18;44.68;;;;;;;6.82;100.00;100595.63;713671;1177;113907;-76
2021/11/17 13:33:32;;;;;;;100.20;43.30;;;;;;;6.95;100.00;100597.40;713926;1177;114754;-75
2021/11/17 13:48:39;;;;;;;93.85;40.70;;;;;;;7.06;100.00;100586.23;713885;1199;115617;-75
2021/11/17 14:03:42;;;;;;;81.15;38.85;;;;;;;7.11;100.00;100579.78;713947;1200;115353;-75
2021/11/17 14:18:49;;;;;;;83.40;40.75;;;;;;;7.12;100.00;100573.59;713848;1200;114455;-72
2021/11/17 14:34:00;;;;;;;86.27;38.27;;;;;;;7.14;100.00;100548.25;713730;1200;115512;-72
2021/11/17 14:49:03;;;;;;;81.08;41.23;;;;;;;7.12;100.00;100528.42;713741;1200;115539;-73
2021/11/17 15:04:05;;;;;;;96.58;44.83;;;;;;;7.18;100.00;100548.88;713898;1177;114387;-73
2021/11/17 15:19:07;;;;;;;88.78;41.63;;;;;;;7.35;100.00;100550.30;713880;1202;113976;-73
2021/11/17 15:34:10;;;;;;;90.63;39.80;;;;;;;7.27;100.00;100547.38;713802;1177;114386;-73
2021/11/17 15:49:12;;;;;;;91.30;44.40;;;;;;;7.31;100.00;100538.39;713824;1202;114047;-75
2021/11/17 16:04:15;;;;;;;93.13;42.38;;;;;;;7.31;100.00;100517.51;713956;1202;114843;-75
2021/11/17 16:19:19;;;;;;;89.00;42.50;;;;;;;7.20;100.00;100540.93;713873;1174;114258;-75
2021/11/17 16:34:23;;;;;;;98.70;46.08;;;;;;;7.06;100.00;100518.40;713819;1202;115728;-74
2021/11/17 16:49:26;;;;;;;88.63;43.70;;;;;;;7.19;100.00;100524.42;714311;1203;114441;-71
2021/11/17 17:04:28;;;;;;;97.70;44.50;;;;;;;7.27;100.00;100513.45;714397;1200;115626;-72
2021/11/17 17:19:31;;;;;;;93.88;44.15;;;;;;;7.09;100.00;100508.59;714318;1177;114009;-72
2021/11/17 17:34:34;;;;;;;144.80;73.83;;;;;;;7.14;100.00;100506.50;714015;1200;114006;-75
2021/11/17 17:49:38;;;;;;;107.85;47.70;;;;;;;7.04;100.00;100521.13;714334;1177;114950;-75
2021/11/17 18:04:43;;;;;;;96.73;43.60;;;;;;;6.83;100.00;100529.47;714172;1177;114160;-74
2021/11/17 18:19:52;;;;;;;70.10;32.33;;;;;;;6.80;100.00;100539.30;714456;1180;114128;-74
2021/11/17 18:34:55;;;;;;;49.10;23.43;;;;;;;6.65;100.00;100528.13;714275;1176;113964;-75
2021/11/17 18:49:58;;;;;;;56.18;21.15;;;;;;;6.76;100.00;100525.63;714166;1200;114951;-76
2021/11/17 19:05:08;;;;;;;58.90;21.70;;;;;;;6.52;100.00;100535.95;714205;1199;114885;-76
2021/11/17 19:20:12;;;;;;;68.60;22.18;;;;;;;6.48;100.00;100532.71;714147;1200;115228;-75
2021/11/17 19:35:17;;;;;;;65.57;25.23;;;;;;;6.43;100.00;100526.97;714372;1200;114027;-76
2021/11/17 19:50:20;;;;;;;38.05;16.65;;;;;;;6.35;100.00;100531.02;714877;1188;114366;-74
2021/11/17 20:05:23;;;;;;;30.60;15.13;;;;;;;6.25;100.00;100542.05;714616;1176;114205;-76
2021/11/17 20:20:27;;;;;;;25.83;13.77;;;;;;;6.06;100.00;100547.64;714270;1200;114665;-75
2021/11/17 20:35:32;;;;;;;25.35;12.90;;;;;;;6.30;100.00;100566.03;714622;1199;114141;-75
2021/11/17 20:50:35;;;;;;;28.68;13.75;;;;;;;6.28;100.00;100569.67;714518;1199;114462;-76
2021/11/17 21:05:40;;;;;;;23.43;11.33;;;;;;;6.07;100.00;100557.13;714287;1197;113945;-75
2021/11/17 21:20:43;;;;;;;23.05;11.85;;;;;;;5.87;100.00;100536.70;714375;1200;114753;-74
2021/11/17 21:35:50;;;;;;;25.13;13.90;;;;;;;5.81;100.00;100528.34;714520;1200;114447;-73
2021/11/17 21:50:54;;;;;;;28.90;14.88;;;;;;;5.89;100.00;100540.05;714420;1200;114105;-72
2021/11/17 22:05:57;;;;;;;26.98;14.53;;;;;;;5.99;100.00;100528.12;714603;1199;114522;-73
2021/11/17 22:21:02;;;;;;;34.55;16.40;;;;;;;6.05;100.00;100538.14;714606;1177;114495;-72
2021/11/17 22:36:05;;;;;;;32.43;16.00;;;;;;;6.09;100.00;100544.82;714711;1200;115356;-72
2021/11/17 22:51:13;;;;;;;32.70;15.48;;;;;;;6.22;100.00;100526.63;714468;1175;115479;-72
2021/11/17 23:06:16;;;;;;;35.00;17.35;;;;;;;6.27;100.00;100521.13;714564;1206;114241;-76
2021/11/17 23:21:22;;;;;;;29.33;14.40;;;;;;;6.27;100.00;100515.91;714784;1202;114379;-74
2021/11/17 23:36:25;;;;;;;28.30;14.70;;;;;;;6.32;100.00;100521.63;714184;1177;114030;-74
2021/11/17 23:51:27;;;;;;;34.15;16.23;;;;;;;6.22;100.00;100521.41;714108;1202;114221;-74
